الصفحة الرئيسية
METAR-TAF:

METAR-TAF

مطار :

Andersen, غوام, الولايات المتحدة

دائرة عرض: 13-35N, خط طول: 144-56E, ارتفاع: 187 متر

مراقبة الطقس الحالي

تاريخ ووقت الإصدار 44 دقيقة قبل الساعة 03:55UTC
ريح 13 عقدة من الشرق/الشمال الشرقي تتزايد حتى 19 عقدة
درجة الحرارة 30°درجة مئوية
الرطوبة 70%
ضغط 1010 hPa
الرؤية: 8.0 كم
غيوم قليلة على ارتفاع 1500 قدم
غيوم متفرقة على ارتفاع 2100 قدم
العجاج

METAR: PGUA 300355Z AUTO 06013G19KT 5SM HZ FEW015 SCT021 30/24 A2983 RMK AO2 SLP092 T02960244 $

زمن: 14:39 (04:39 UTC)

توقعات

تاريخ ووقت الإصدار 2ساعات و 39 دقيقة قبل الساعة 02:00UTC
التوقعات صالحة من30 الساعة 02 UTC إلى 01 الساعة 08 UTC
ريح 15 عقدة من الشرق/الشمال الشرقي تتزايد حتى 20 عقدة
الرؤية 10 كم أو أكثر
غيوم مفككة على ارتفاع 2000 قدم
مؤقت
من 30 الساعة 09 UTC إلى 01 الساعة 00 UTC
ريح 20 عقدة من الشرق/الشمال الشرقي تتزايد حتى 25 عقدة
الرؤية: 6000 متر
غيوم مفككة على ارتفاع 1500 قدم
زخات من الأمطار الخفيفة,

TAF: PGUA 300200Z 3002/0108 07015G20KT 9999 BKN020 QNH2989INS TEMPO 3009/0100 07020G25KT 6000 -SHRA BKN015 TX30/3002Z TN25/3018Z

أرصاد الطقس والتوقعات من أكثر من 4000 مطار (تقارير الطقس للمطار METAR والتنبؤ بالطقس بالمطارTAF).

المحطات المتاحة هي النقط الصفراء والحمراء على الخريطة.

حرك المؤشر فوق النقطة لمعرفة اسم المحطة.

ثم انقر لمعرفة أرصاد وتوقعات الطقس.

لتغيير الخارطة: اضغط على الأزرار الخضراء مع رمز الصليب الأسود للتكبير. على الزر الأخضر مع شرطة للتصغير، أو على الأسهم الخضراء للخرائط المجاورة.


METAR-TAF: